• Join FlightAware (Why Join?)
  • Login
  • US Flag 
12:03PM EDT


 

Airport Tracker/Info


-or-


 

Live Flight TrackerFlight Track Log ✈ AAL2007 ✈ 28-Jul-2013 ✈ KORD - KAUS

Flight Track Log - Related Links

Times and Time Zones

All times are in EDT time to prevent confusion due to time zone crossing. See the AAL2007 flight status page for this flight to view local times or setup timezone preferences in your user account.

Time Position Orientation Groundspeed Altitude Reporting Facility
EDT Latitude Longitude Course Direction KTS MPH feet Rate Location/Type
06:06PM 41.9333 -87.9167 194° South 179 206 2,300  Level Chicago TRACON
06:07PM 41.8833 -87.9333 194° South 222 255 4,400 2,100 Climbing Chicago TRACON
06:08PM 41.7009 -88.1876 201° Southwest  Level Estimated
06:08PM 41.8167 -87.9667 200° South 263 303 6,600  Level Chicago TRACON
06:09PM 41.6072 -88.2807 197° South  Level Estimated
06:09PM 41.7800 -87.9919 207° Southwest 322 371 7,700  Level Chicago Center
06:10PM 41.5134 -88.3736 194° South  Level Estimated
06:10PM 41.7050 -88.0292 200° South 290 334 10,500  Level Chicago Center
06:11PM 41.4195 -88.4661 207° Southwest  Level Estimated
06:11PM 41.6203 -88.0733 201° Southwest 323 372 11,900  Level Chicago Center
06:12PM 41.3289 -88.5552 194° South  Level Estimated
06:12PM 41.5111 -88.1286 201° Southwest 385 443 13,900  Level Chicago Center
06:13PM 41.4025 -88.1814 200° South 409 471 16,300 2,100 Climbing Chicago Center
06:14PM 41.2897 -88.2328 199° South 428 493 18,300 2,340 Climbing Chicago Center
06:15PM 41.1761 -88.2833 199° South 430 495 21,200 2,220 Climbing Chicago Center
06:16PM 41.0428 -88.3442 199° South 423 487 23,000 1,440 Climbing Chicago Center
06:17PM 40.9225 -88.3986 199° South 449 517 24,200 1,200 Climbing Chicago Center
06:18PM 40.7989 -88.4539 199° South 463 533 25,600 1,500 Climbing Chicago Center
06:19PM 40.6728 -88.5094 198° South 471 542 27,400 1,800 Climbing Chicago Center
06:20PM 40.5517 -88.5700 201° Southwest 467 537 29,400 1,620 Climbing Chicago Center
06:21PM 40.4589 -88.6681 219° Southwest 432 497 30,800 1,200 Climbing Chicago Center
06:22PM 40.3717 -88.7711 222° Southwest 423 487 31,900 540 Climbing Chicago Center
06:23PM 40.2625 -88.8981 222° Southwest 433 498 32,000  Climbing Chicago Center
06:24PM 40.1692 -89.0036 221° Southwest 441 507 32,000  Level Chicago Center
06:25PM 40.0803 -89.1086 222° Southwest 434 499 32,000  Level Chicago Center
06:26PM 39.9875 -89.2150 221° Southwest 438 504 32,000 540 Level Chicago Center
06:27PM 39.8972 -89.3200 222° Southwest 435 501 33,200 960 Climbing Chicago Center
06:28PM 39.8089 -89.4206 221° Southwest 424 488 34,000 360 Climbing Chicago Center
06:29PM 39.7200 -89.5214 221° Southwest 424 488 34,000  Level Chicago Center
06:30PM 39.6100 -89.6467 221° Southwest 432 497 34,000  Level Chicago Center
06:31PM 39.5208 -89.7481 221° Southwest 429 494 34,000  Level Chicago Center
06:33PM 39.4317 -89.8483 221° Southwest 425 489 34,000  Level Chicago Center
06:34PM 39.3414 -89.9494 221° Southwest 427 491 34,000  Level Chicago Center
06:35PM 39.2519 -90.0497 221° Southwest 426 490 34,000  Level Chicago Center
06:36PM 39.1256 -90.1908 221° Southwest 426 490 34,000  Level Kansas City Center
06:37PM 39.0353 -90.2911 221° Southwest 429 494 34,000  Level Kansas City Center
06:38PM 38.9369 -90.4006 221° Southwest 429 494 34,000  Level Kansas City Center
06:39PM 38.8467 -90.5019 221° Southwest 428 493 34,000  Level Kansas City Center
06:40PM 38.7522 -90.6008 219° Southwest 433 498 34,000  Level Kansas City Center
06:41PM 38.6631 -90.7106 224° Southwest 427 491 34,000  Level Kansas City Center
06:42PM 38.5747 -90.8111 222° Southwest 427 491 34,000  Level Kansas City Center
06:43PM 38.4681 -90.9333 222° Southwest 430 495 34,000  Level Kansas City Center
06:44PM 38.3792 -91.0364 222° Southwest 433 498 34,000  Level Kansas City Center
06:45PM 38.2858 -91.1356 220° Southwest 434 499 34,000  Level Kansas City Center
06:46PM 38.1886 -91.2286 217° Southwest 436 502 34,000  Level Kansas City Center
06:47PM 38.0900 -91.3217 217° Southwest 435 501 34,000  Level Kansas City Center
06:48PM 37.9925 -91.4172 218° Southwest 437 503 34,000  Level Kansas City Center
06:49PM 37.8933 -91.5139 218° Southwest 442 509 34,000  Level Kansas City Center
06:50PM 37.7750 -91.6272 217° Southwest 442 509 34,000  Level Kansas City Center
06:51PM 37.6753 -91.7228 217° Southwest 444 511 34,000  Level Kansas City Center
06:53PM 37.5764 -91.8197 218° Southwest 446 513 34,000  Level Kansas City Center
06:54PM 37.4764 -91.9147 217° Southwest 446 513 34,000  Level Kansas City Center
06:55PM 37.3772 -92.0103 217° Southwest 447 514 34,000  Level Kansas City Center
06:56PM 37.2778 -92.1056 217° Southwest 447 514 34,000  Level Kansas City Center
06:57PM 37.1789 -92.1978 217° Southwest 443 510 34,000  Level Kansas City Center
06:58PM 37.0806 -92.2911 217° Southwest 441 507 34,000  Level Kansas City Center
06:59PM 36.9822 -92.3853 217° Southwest 442 509 34,000  Level Kansas City Center
07:00PM 36.8636 -92.4947 216° Southwest 441 507 34,000  Level Kansas City Center
07:01PM 36.7644 -92.5875 217° Southwest 442 509 34,000  Level Kansas City Center
07:02PM 36.6647 -92.6797 217° Southwest 444 511 34,000  Level Kansas City Center
07:03PM 36.5700 -92.7658 216° Southwest 446 513 34,000  Level Kansas City Center
07:04PM 36.4700 -92.8569 216° Southwest 446 513 34,000  Level Kansas City Center
07:05PM 36.3506 -92.9689 217° Southwest 449 517 34,000  Level Kansas City Center
07:06PM 36.2497 -93.0619 217° Southwest 452 520 34,000  Level Kansas City Center
07:07PM 36.1589 -93.1411 215° Southwest 454 522 34,000  Level Memphis Center
07:08PM 36.0567 -93.2378 217° Southwest 459 528 34,000  Level Memphis Center
07:09PM 35.9414 -93.3439 217° Southwest 472 543 34,000  Level Memphis Center
07:10PM 35.8392 -93.4350 216° Southwest 472 543 34,000  Level Memphis Center
07:11PM 35.7367 -93.5283 216° Southwest 466 536 34,000  Level Memphis Center
07:12PM 35.6322 -93.6214 216° Southwest 466 536 34,000  Level Memphis Center
07:13PM 35.5297 -93.7117 216° Southwest 466 536 34,000  Level Memphis Center
07:14PM 35.4250 -93.8069 217° Southwest 466 536 34,000  Level Memphis Center
07:15PM 35.3222 -93.9019 217° Southwest 473 544 34,000  Level Memphis Center
07:16PM 35.2172 -93.9942 216° Southwest 468 539 34,000  Level Memphis Center
07:18PM 35.0486 -94.1419 216° Southwest 466 536 34,000  Level Fort Worth Center
07:19PM 34.9469 -94.2372 218° Southwest 472 543 34,000  Level Fort Worth Center
07:20PM 34.8447 -94.3269 216° Southwest 478 550 34,000  Level Fort Worth Center
07:21PM 34.7406 -94.4167 215° Southwest 464 534 34,000  Level Fort Worth Center
07:22PM 34.6383 -94.5086 217° Southwest 464 534 34,000  Level Fort Worth Center
07:23PM 34.5300 -94.6006 215° Southwest 469 540 34,000  Level Fort Worth Center
07:24PM 34.4256 -94.6919 216° Southwest 469 540 34,000  Level Fort Worth Center
07:25PM 34.3211 -94.7833 216° Southwest 469 540 34,000  Level Fort Worth Center
07:26PM 34.2125 -94.8769 215° Southwest 469 540 34,000  Level Fort Worth Center
07:27PM 34.1058 -94.9678 215° Southwest 475 547 34,000  Level Fort Worth Center
07:28PM 33.9989 -95.0586 215° Southwest 475 547 34,000  Level Fort Worth Center
07:29PM 33.8922 -95.1464 214° Southwest 475 547 34,000  Level Fort Worth Center
07:30PM 33.7872 -95.2342 215° Southwest 475 547 34,000  Level Fort Worth Center
07:31PM 33.6822 -95.3267 216° Southwest 475 547 34,000  Level Fort Worth Center
07:32PM 33.5731 -95.4142 214° Southwest 470 541 34,000  Level Fort Worth Center
07:33PM 33.4700 -95.5011 215° Southwest 470 541 34,000  Level Fort Worth Center
07:34PM 33.3525 -95.5956 214° Southwest 470 541 34,000  Level Fort Worth Center
07:35PM 33.2475 -95.6847 215° Southwest 464 534 34,000  Level Fort Worth Center
07:36PM 33.1400 -95.7736 215° Southwest 464 534 34,000  Level Fort Worth Center
07:37PM 33.0347 -95.8622 215° Southwest 464 534 34,000  Level Fort Worth Center
07:38PM 32.9272 -95.9508 215° Southwest 464 534 34,000  Level Fort Worth Center
07:39PM 32.8217 -96.0389 215° Southwest 464 534 34,000  Level Fort Worth Center
07:40PM 32.7142 -96.1269 215° Southwest 469 540 34,000  Level Fort Worth Center
07:41PM 32.6044 -96.2175 215° Southwest 476 548 34,000  Level Fort Worth Center
07:42PM 32.4967 -96.3050 214° Southwest 476 548 34,000  Level Fort Worth Center
07:43PM 32.3867 -96.3950 215° Southwest 476 548 34,000  Level Fort Worth Center
07:44PM 32.2767 -96.4822 214° Southwest 482 555 34,000 -480 Level Fort Worth Center
07:45PM 32.1689 -96.5717 215° Southwest 482 555 33,100 -1,200 Descending Fort Worth Center
07:46PM 32.0628 -96.6583 215° Southwest 487 560 31,600 -1,380 Descending Fort Worth Center
07:47PM 31.9756 -96.7275 214° Southwest 481 554 30,400 -1,500 Descending Fort Worth Center
07:48PM 31.8467 -96.8336 215° Southwest 481 554 28,700 -1,620 Descending Fort Worth Center
07:49PM 31.7406 -96.9222 215° Southwest 481 554 27,200 -1,560 Descending Fort Worth Center
07:49PM 31.6550 -96.9844 212° Southwest 462 532 25,900 -1,500 Descending Houston Center
07:50PM 31.5503 -97.0678 214° Southwest 452 520 24,400 -1,500 Descending Houston Center
07:51PM 31.4325 -97.1208 201° Southwest 450 518 22,900 -1,620 Descending Houston Center
07:52PM 31.3142 -97.1667 198° South 445 512 21,100 -1,920 Descending Houston Center
07:54PM 31.2003 -97.2122 199° South 432 497 19,000 -2,100 Descending Houston Center
07:55PM 31.0886 -97.2561 199° South 421 484 16,900 -2,160 Descending Houston Center
07:56PM 30.9625 -97.3064 199° South 416 479 14,600 -2,100 Descending Houston Center
07:57PM 30.8594 -97.3447 198° South 401 461 12,700 -1,860 Descending Houston Center
07:58PM 30.7631 -97.3853 200° South 372 428 10,800 -1,560 Descending Houston Center
07:59PM 30.6847 -97.4336 208° Southwest 320 368 9,500 -1,620 Descending Houston Center
08:00PM 30.6161 -97.4769 209° Southwest 288 331 7,600 -1,860 Descending Houston Center
08:01PM 30.5503 -97.5186 209° Southwest 272 313 5,800 -1,740 Descending Houston Center
08:02PM 30.4736 -97.5672 209° Southwest 267 307 4,100 -1,320 Descending Houston Center
08:03PM 30.4114 -97.6067 209° Southwest 257 296 3,200 -780 Descending Houston Center
08:04PM 30.3489 -97.6458 208° Southwest 254 292 2,500 -480 Descending Houston Center
08:05PM 30.2956 -97.6794 209° Southwest 226 260 2,300 -660 Descending Houston Center
08:06PM 30.2522 -97.6800 181° South 173 199 1,200 -780 Descending Houston Center
08:07PM 30.2158 -97.6781 177° South 154 177 800 -420 Descending Houston Center